sensor_id;sensor_type;location;lat;lon;timestamp;temperature;humidity
7894;DHT22;51343;51.396;6.656;2022-08-01T00:02:16;18.90;99.90
7894;DHT22;51343;51.396;6.656;2022-08-01T00:04:43;19.00;99.90
7894;DHT22;51343;51.396;6.656;2022-08-01T00:07:10;18.90;99.90
7894;DHT22;51343;51.396;6.656;2022-08-01T00:09:37;18.90;99.90
7894;DHT22;51343;51.396;6.656;2022-08-01T00:12:04;18.90;99.90
7894;DHT22;51343;51.396;6.656;2022-08-01T00:14:31;18.90;99.90
7894;DHT22;51343;51.396;6.656;2022-08-01T00:16:58;18.90;99.90
7894;DHT22;51343;51.396;6.656;2022-08-01T00:19:26;18.90;99.90
7894;DHT22;51343;51.396;6.656;2022-08-01T00:21:53;18.90;99.90
7894;DHT22;51343;51.396;6.656;2022-08-01T00:24:20;18.90;99.90
7894;DHT22;51343;51.396;6.656;2022-08-01T00:26:47;18.90;99.90
7894;DHT22;51343;51.396;6.656;2022-08-01T00:29:13;18.80;99.90
7894;DHT22;51343;51.396;6.656;2022-08-01T00:31:40;18.90;99.90
7894;DHT22;51343;51.396;6.656;2022-08-01T00:34:07;18.90;99.90
7894;DHT22;51343;51.396;6.656;2022-08-01T00:36:36;18.80;99.90
7894;DHT22;51343;51.396;6.656;2022-08-01T00:39:03;18.90;99.90
7894;DHT22;51343;51.396;6.656;2022-08-01T00:41:30;18.80;99.90
7894;DHT22;51343;51.396;6.656;2022-08-01T00:43:57;18.90;99.90
7894;DHT22;51343;51.396;6.656;2022-08-01T00:46:24;18.90;99.90
7894;DHT22;51343;51.396;6.656;2022-08-01T00:48:50;18.90;99.90
7894;DHT22;51343;51.396;6.656;2022-08-01T00:51:17;18.90;99.90
7894;DHT22;51343;51.396;6.656;2022-08-01T00:53:45;18.90;99.90
7894;DHT22;51343;51.396;6.656;2022-08-01T00:56:12;18.90;99.90
7894;DHT22;51343;51.396;6.656;2022-08-01T00:58:39;18.80;99.90
7894;DHT22;51343;51.396;6.656;2022-08-01T01:01:06;18.90;99.90
7894;DHT22;51343;51.396;6.656;2022-08-01T01:03:32;18.90;99.90
7894;DHT22;51343;51.396;6.656;2022-08-01T01:06:11;18.90;99.90
7894;DHT22;51343;51.396;6.656;2022-08-01T01:08:41;18.90;99.90
7894;DHT22;51343;51.396;6.656;2022-08-01T01:11:13;18.90;99.90
7894;DHT22;51343;51.396;6.656;2022-08-01T01:13:41;18.90;99.90
7894;DHT22;51343;51.396;6.656;2022-08-01T01:16:10;18.90;99.90
7894;DHT22;51343;51.396;6.656;2022-08-01T01:18:39;18.90;99.90
7894;DHT22;51343;51.396;6.656;2022-08-01T01:21:13;18.90;99.90
7894;DHT22;51343;51.396;6.656;2022-08-01T01:23:46;18.90;99.90
7894;DHT22;51343;51.396;6.656;2022-08-01T01:26:31;18.90;99.90
7894;DHT22;51343;51.396;6.656;2022-08-01T01:29:11;18.90;99.90
7894;DHT22;51343;51.396;6.656;2022-08-01T01:31:42;18.80;99.90
7894;DHT22;51343;51.396;6.656;2022-08-01T01:34:09;18.90;99.90
7894;DHT22;51343;51.396;6.656;2022-08-01T01:36:37;18.90;99.90
7894;DHT22;51343;51.396;6.656;2022-08-01T01:39:05;18.90;99.90
7894;DHT22;51343;51.396;6.656;2022-08-01T01:41:33;18.90;99.90
7894;DHT22;51343;51.396;6.656;2022-08-01T01:44:00;18.90;99.90
7894;DHT22;51343;51.396;6.656;2022-08-01T01:46:29;18.80;99.90
7894;DHT22;51343;51.396;6.656;2022-08-01T01:48:57;18.80;99.90
7894;DHT22;51343;51.396;6.656;2022-08-01T01:51:25;18.80;99.90
7894;DHT22;51343;51.396;6.656;2022-08-01T01:53:53;18.90;99.90
7894;DHT22;51343;51.396;6.656;2022-08-01T01:56:21;18.80;99.90
7894;DHT22;51343;51.396;6.656;2022-08-01T01:58:50;18.80;99.90
7894;DHT22;51343;51.396;6.656;2022-08-01T02:01:17;18.80;99.90
7894;DHT22;51343;51.396;6.656;2022-08-01T02:03:46;18.90;99.90
7894;DHT22;51343;51.396;6.656;2022-08-01T02:06:14;18.80;99.90
7894;DHT22;51343;51.396;6.656;2022-08-01T02:08:41;18.90;99.90
7894;DHT22;51343;51.396;6.656;2022-08-01T02:11:08;18.90;99.90
7894;DHT22;51343;51.396;6.656;2022-08-01T02:13:48;18.80;99.90
7894;DHT22;51343;51.396;6.656;2022-08-01T02:16:16;18.90;99.90
7894;DHT22;51343;51.396;6.656;2022-08-01T02:18:43;18.90;99.90
7894;DHT22;51343;51.396;6.656;2022-08-01T02:21:12;18.90;99.90
7894;DHT22;51343;51.396;6.656;2022-08-01T02:23:40;18.90;99.90
7894;DHT22;51343;51.396;6.656;2022-08-01T02:26:07;18.90;99.90
7894;DHT22;51343;51.396;6.656;2022-08-01T02:28:36;18.80;99.90
7894;DHT22;51343;51.396;6.656;2022-08-01T02:31:05;18.90;99.90
7894;DHT22;51343;51.396;6.656;2022-08-01T02:33:34;18.90;99.90
7894;DHT22;51343;51.396;6.656;2022-08-01T02:36:03;18.90;99.90
7894;DHT22;51343;51.396;6.656;2022-08-01T02:38:33;18.90;99.90
7894;DHT22;51343;51.396;6.656;2022-08-01T02:41:02;18.90;99.90
7894;DHT22;51343;51.396;6.656;2022-08-01T02:43:31;18.90;99.90
7894;DHT22;51343;51.396;6.656;2022-08-01T02:46:01;18.90;99.90
7894;DHT22;51343;51.396;6.656;2022-08-01T02:48:28;18.90;99.90
7894;DHT22;51343;51.396;6.656;2022-08-01T02:50:57;18.90;99.90
7894;DHT22;51343;51.396;6.656;2022-08-01T02:53:24;18.90;99.90
7894;DHT22;51343;51.396;6.656;2022-08-01T02:55:53;18.90;99.90
7894;DHT22;51343;51.396;6.656;2022-08-01T02:58:20;18.90;99.90
7894;DHT22;51343;51.396;6.656;2022-08-01T03:00:49;18.90;99.90
7894;DHT22;51343;51.396;6.656;2022-08-01T03:03:16;18.90;99.90
7894;DHT22;51343;51.396;6.656;2022-08-01T03:05:43;18.90;99.90
7894;DHT22;51343;51.396;6.656;2022-08-01T03:08:11;18.90;99.90
7894;DHT22;51343;51.396;6.656;2022-08-01T03:10:39;19.00;99.90
7894;DHT22;51343;51.396;6.656;2022-08-01T03:13:08;18.90;99.90
7894;DHT22;51343;51.396;6.656;2022-08-01T03:15:35;18.90;99.90
7894;DHT22;51343;51.396;6.656;2022-08-01T03:18:03;18.90;99.90
7894;DHT22;51343;51.396;6.656;2022-08-01T03:20:31;18.90;99.90
7894;DHT22;51343;51.396;6.656;2022-08-01T03:22:59;18.90;99.90
7894;DHT22;51343;51.396;6.656;2022-08-01T03:25:26;18.90;99.90
7894;DHT22;51343;51.396;6.656;2022-08-01T03:27:55;18.90;99.90
7894;DHT22;51343;51.396;6.656;2022-08-01T03:30:23;18.90;99.90
7894;DHT22;51343;51.396;6.656;2022-08-01T03:32:52;18.90;99.90
7894;DHT22;51343;51.396;6.656;2022-08-01T03:35:18;18.90;99.90
7894;DHT22;51343;51.396;6.656;2022-08-01T03:37:46;18.90;99.90
7894;DHT22;51343;51.396;6.656;2022-08-01T03:40:15;18.90;99.90
7894;DHT22;51343;51.396;6.656;2022-08-01T03:42:45;18.90;99.90
7894;DHT22;51343;51.396;6.656;2022-08-01T03:45:15;18.90;99.90
7894;DHT22;51343;51.396;6.656;2022-08-01T03:47:44;18.90;99.90
7894;DHT22;51343;51.396;6.656;2022-08-01T03:50:13;18.90;99.90
7894;DHT22;51343;51.396;6.656;2022-08-01T03:52:41;18.90;99.90
7894;DHT22;51343;51.396;6.656;2022-08-01T03:55:09;18.90;99.90
7894;DHT22;51343;51.396;6.656;2022-08-01T03:57:37;18.90;99.90
7894;DHT22;51343;51.396;6.656;2022-08-01T04:00:05;18.90;99.90
7894;DHT22;51343;51.396;6.656;2022-08-01T04:02:34;18.90;99.90
7894;DHT22;51343;51.396;6.656;2022-08-01T04:05:02;18.90;99.90
7894;DHT22;51343;51.396;6.656;2022-08-01T04:07:31;18.90;99.90
7894;DHT22;51343;51.396;6.656;2022-08-01T04:09:58;18.80;99.90
7894;DHT22;51343;51.396;6.656;2022-08-01T04:12:24;18.80;99.90
7894;DHT22;51343;51.396;6.656;2022-08-01T04:14:51;18.80;99.90
7894;DHT22;51343;51.396;6.656;2022-08-01T04:17:18;18.80;99.90
7894;DHT22;51343;51.396;6.656;2022-08-01T04:19:45;18.80;99.90
7894;DHT22;51343;51.396;6.656;2022-08-01T04:22:14;18.80;99.90
7894;DHT22;51343;51.396;6.656;2022-08-01T04:24:42;18.80;99.90
7894;DHT22;51343;51.396;6.656;2022-08-01T04:27:10;18.80;99.90
7894;DHT22;51343;51.396;6.656;2022-08-01T04:29:37;18.80;99.90
7894;DHT22;51343;51.396;6.656;2022-08-01T04:32:04;18.80;99.90
7894;DHT22;51343;51.396;6.656;2022-08-01T04:34:32;18.90;99.90
7894;DHT22;51343;51.396;6.656;2022-08-01T04:37:00;18.90;99.90
7894;DHT22;51343;51.396;6.656;2022-08-01T04:39:28;18.90;99.90
7894;DHT22;51343;51.396;6.656;2022-08-01T04:41:58;19.00;99.90
7894;DHT22;51343;51.396;6.656;2022-08-01T04:44:28;19.00;99.90
7894;DHT22;51343;51.396;6.656;2022-08-01T04:46:57;19.00;99.90
7894;DHT22;51343;51.396;6.656;2022-08-01T04:49:25;18.90;99.90
7894;DHT22;51343;51.396;6.656;2022-08-01T04:51:52;18.90;99.90
7894;DHT22;51343;51.396;6.656;2022-08-01T04:54:23;19.00;99.90
7894;DHT22;51343;51.396;6.656;2022-08-01T04:56:52;19.00;99.90
7894;DHT22;51343;51.396;6.656;2022-08-01T04:59:21;19.00;99.90
7894;DHT22;51343;51.396;6.656;2022-08-01T05:02:06;19.10;99.90
7894;DHT22;51343;51.396;6.656;2022-08-01T05:04:32;19.10;99.90
7894;DHT22;51343;51.396;6.656;2022-08-01T05:06:59;19.00;99.90
7894;DHT22;51343;51.396;6.656;2022-08-01T05:09:26;18.90;99.90
7894;DHT22;51343;51.396;6.656;2022-08-01T05:11:54;18.90;99.90
7894;DHT22;51343;51.396;6.656;2022-08-01T05:14:23;18.90;99.90
7894;DHT22;51343;51.396;6.656;2022-08-01T05:16:51;18.90;99.90
7894;DHT22;51343;51.396;6.656;2022-08-01T05:19:18;18.90;99.90
7894;DHT22;51343;51.396;6.656;2022-08-01T05:21:45;18.80;99.90
7894;DHT22;51343;51.396;6.656;2022-08-01T05:24:11;18.80;99.90
7894;DHT22;51343;51.396;6.656;2022-08-01T05:26:39;18.80;99.90
7894;DHT22;51343;51.396;6.656;2022-08-01T05:29:07;18.80;99.90
7894;DHT22;51343;51.396;6.656;2022-08-01T05:31:34;18.90;99.90
7894;DHT22;51343;51.396;6.656;2022-08-01T05:34:00;18.90;99.90
7894;DHT22;51343;51.396;6.656;2022-08-01T05:36:28;18.90;99.90
7894;DHT22;51343;51.396;6.656;2022-08-01T05:38:54;18.90;99.90
7894;DHT22;51343;51.396;6.656;2022-08-01T05:41:21;19.00;99.90
7894;DHT22;51343;51.396;6.656;2022-08-01T05:43:48;19.10;99.90
7894;DHT22;51343;51.396;6.656;2022-08-01T05:46:17;19.10;99.90
7894;DHT22;51343;51.396;6.656;2022-08-01T05:48:43;19.20;99.90
7894;DHT22;51343;51.396;6.656;2022-08-01T05:51:10;19.20;99.90
7894;DHT22;51343;51.396;6.656;2022-08-01T05:53:37;19.20;99.90
7894;DHT22;51343;51.396;6.656;2022-08-01T05:56:04;19.20;99.90
7894;DHT22;51343;51.396;6.656;2022-08-01T05:58:31;19.20;99.90
7894;DHT22;51343;51.396;6.656;2022-08-01T06:00:58;19.20;99.90
7894;DHT22;51343;51.396;6.656;2022-08-01T06:03:26;19.10;99.90
7894;DHT22;51343;51.396;6.656;2022-08-01T06:05:56;19.20;99.90
7894;DHT22;51343;51.396;6.656;2022-08-01T06:08:24;19.20;99.90
7894;DHT22;51343;51.396;6.656;2022-08-01T06:10:54;19.20;99.90
7894;DHT22;51343;51.396;6.656;2022-08-01T06:13:27;19.30;99.90
7894;DHT22;51343;51.396;6.656;2022-08-01T06:15:55;19.40;99.90
7894;DHT22;51343;51.396;6.656;2022-08-01T06:18:22;19.40;99.90
7894;DHT22;51343;51.396;6.656;2022-08-01T06:20:50;19.50;99.90
7894;DHT22;51343;51.396;6.656;2022-08-01T06:23:17;19.60;99.90
7894;DHT22;51343;51.396;6.656;2022-08-01T06:25:43;19.60;99.90
7894;DHT22;51343;51.396;6.656;2022-08-01T06:28:10;19.60;99.90
7894;DHT22;51343;51.396;6.656;2022-08-01T06:30:37;19.70;99.90
7894;DHT22;51343;51.396;6.656;2022-08-01T06:33:03;19.80;99.90
7894;DHT22;51343;51.396;6.656;2022-08-01T06:35:30;19.90;99.90
7894;DHT22;51343;51.396;6.656;2022-08-01T06:37:58;19.90;99.90
7894;DHT22;51343;51.396;6.656;2022-08-01T06:40:26;19.90;99.90
7894;DHT22;51343;51.396;6.656;2022-08-01T06:42:52;20.00;99.90
7894;DHT22;51343;51.396;6.656;2022-08-01T06:45:19;20.00;99.90
7894;DHT22;51343;51.396;6.656;2022-08-01T06:47:47;20.10;99.90
7894;DHT22;51343;51.396;6.656;2022-08-01T06:50:15;20.00;99.90
7894;DHT22;51343;51.396;6.656;2022-08-01T06:52:42;20.00;99.90
7894;DHT22;51343;51.396;6.656;2022-08-01T06:55:10;20.00;99.90
7894;DHT22;51343;51.396;6.656;2022-08-01T06:57:44;19.90;99.90
7894;DHT22;51343;51.396;6.656;2022-08-01T07:00:11;19.90;99.90
7894;DHT22;51343;51.396;6.656;2022-08-01T07:02:38;20.00;99.90
7894;DHT22;51343;51.396;6.656;2022-08-01T07:05:06;19.90;99.90
7894;DHT22;51343;51.396;6.656;2022-08-01T07:07:33;20.00;99.90
7894;DHT22;51343;51.396;6.656;2022-08-01T07:10:00;20.10;99.90
7894;DHT22;51343;51.396;6.656;2022-08-01T07:12:28;20.20;99.90
7894;DHT22;51343;51.396;6.656;2022-08-01T07:14:54;20.30;99.90
7894;DHT22;51343;51.396;6.656;2022-08-01T07:17:21;20.40;99.90
7894;DHT22;51343;51.396;6.656;2022-08-01T07:19:47;20.50;99.90
7894;DHT22;51343;51.396;6.656;2022-08-01T07:22:14;20.40;99.90
7894;DHT22;51343;51.396;6.656;2022-08-01T07:24:41;20.40;99.90
7894;DHT22;51343;51.396;6.656;2022-08-01T07:27:08;20.40;99.90
7894;DHT22;51343;51.396;6.656;2022-08-01T07:29:36;20.40;99.90
7894;DHT22;51343;51.396;6.656;2022-08-01T07:32:03;20.50;99.90
7894;DHT22;51343;51.396;6.656;2022-08-01T07:34:30;20.60;99.90
7894;DHT22;51343;51.396;6.656;2022-08-01T07:36:58;20.70;99.90
7894;DHT22;51343;51.396;6.656;2022-08-01T07:39:24;20.80;99.90
7894;DHT22;51343;51.396;6.656;2022-08-01T07:41:51;20.90;99.90
7894;DHT22;51343;51.396;6.656;2022-08-01T07:44:18;21.10;99.90
7894;DHT22;51343;51.396;6.656;2022-08-01T07:46:46;21.20;99.90
7894;DHT22;51343;51.396;6.656;2022-08-01T07:49:13;21.40;99.90
7894;DHT22;51343;51.396;6.656;2022-08-01T07:51:40;21.50;99.90
7894;DHT22;51343;51.396;6.656;2022-08-01T07:54:07;21.60;99.90
7894;DHT22;51343;51.396;6.656;2022-08-01T07:56:33;21.50;1.00
7894;DHT22;51343;51.396;6.656;2022-08-01T07:59:00;21.40;1.00
7894;DHT22;51343;51.396;6.656;2022-08-01T08:01:27;21.10;99.90
7894;DHT22;51343;51.396;6.656;2022-08-01T08:03:55;20.80;1.00
7894;DHT22;51343;51.396;6.656;2022-08-01T08:06:22;20.60;1.00
7894;DHT22;51343;51.396;6.656;2022-08-01T08:08:49;20.60;1.00
7894;DHT22;51343;51.396;6.656;2022-08-01T08:11:15;20.70;1.00
7894;DHT22;51343;51.396;6.656;2022-08-01T08:13:42;20.90;1.00
7894;DHT22;51343;51.396;6.656;2022-08-01T08:16:10;21.10;32.60
7894;DHT22;51343;51.396;6.656;2022-08-01T08:18:37;21.10;1.00
7894;DHT22;51343;51.396;6.656;2022-08-01T08:21:05;21.20;1.00
7894;DHT22;51343;51.396;6.656;2022-08-01T08:23:31;21.40;1.00
7894;DHT22;51343;51.396;6.656;2022-08-01T08:26:16;21.50;1.00
7894;DHT22;51343;51.396;6.656;2022-08-01T08:28:42;21.70;1.00
7894;DHT22;51343;51.396;6.656;2022-08-01T08:31:09;21.70;99.90
7894;DHT22;51343;51.396;6.656;2022-08-01T08:33:36;21.70;1.00
7894;DHT22;51343;51.396;6.656;2022-08-01T08:36:02;21.80;99.90
7894;DHT22;51343;51.396;6.656;2022-08-01T08:38:31;21.90;99.90
7894;DHT22;51343;51.396;6.656;2022-08-01T08:40:58;21.90;1.00
7894;DHT22;51343;51.396;6.656;2022-08-01T08:43:25;22.00;1.00
7894;DHT22;51343;51.396;6.656;2022-08-01T08:45:53;22.00;1.00
7894;DHT22;51343;51.396;6.656;2022-08-01T08:48:20;22.10;1.00
7894;DHT22;51343;51.396;6.656;2022-08-01T08:50:47;22.10;1.00
7894;DHT22;51343;51.396;6.656;2022-08-01T08:53:14;22.00;1.00
7894;DHT22;51343;51.396;6.656;2022-08-01T08:55:43;22.10;1.00
7894;DHT22;51343;51.396;6.656;2022-08-01T08:58:10;22.10;39.30
7894;DHT22;51343;51.396;6.656;2022-08-01T09:00:38;22.20;1.00
7894;DHT22;51343;51.396;6.656;2022-08-01T09:03:05;22.20;99.90
7894;DHT22;51343;51.396;6.656;2022-08-01T09:05:32;22.30;1.00
7894;DHT22;51343;51.396;6.656;2022-08-01T09:07:59;22.40;1.00
7894;DHT22;51343;51.396;6.656;2022-08-01T09:10:25;22.60;99.90
7894;DHT22;51343;51.396;6.656;2022-08-01T09:13:03;22.50;99.90
7894;DHT22;51343;51.396;6.656;2022-08-01T09:15:37;22.30;1.00
7894;DHT22;51343;51.396;6.656;2022-08-01T09:18:04;22.20;99.90
7894;DHT22;51343;51.396;6.656;2022-08-01T09:20:30;22.20;99.90
7894;DHT22;51343;51.396;6.656;2022-08-01T09:23:00;22.30;43.90
7894;DHT22;51343;51.396;6.656;2022-08-01T09:25:27;22.50;1.00
7894;DHT22;51343;51.396;6.656;2022-08-01T09:28:01;22.50;1.00
7894;DHT22;51343;51.396;6.656;2022-08-01T09:30:30;22.40;1.00
7894;DHT22;51343;51.396;6.656;2022-08-01T09:33:02;22.50;49.80
7894;DHT22;51343;51.396;6.656;2022-08-01T09:35:30;22.60;1.00
7894;DHT22;51343;51.396;6.656;2022-08-01T09:38:15;22.60;1.00
7894;DHT22;51343;51.396;6.656;2022-08-01T09:40:45;22.60;1.00
7894;DHT22;51343;51.396;6.656;2022-08-01T09:43:12;22.60;1.00
7894;DHT22;51343;51.396;6.656;2022-08-01T09:45:40;22.80;1.00
7894;DHT22;51343;51.396;6.656;2022-08-01T09:48:08;22.90;99.90
7894;DHT22;51343;51.396;6.656;2022-08-01T09:50:38;23.10;99.90
7894;DHT22;51343;51.396;6.656;2022-08-01T09:53:05;23.20;99.90
7894;DHT22;51343;51.396;6.656;2022-08-01T09:55:32;23.20;99.90
7894;DHT22;51343;51.396;6.656;2022-08-01T09:57:59;23.40;99.90
7894;DHT22;51343;51.396;6.656;2022-08-01T10:00:26;23.40;99.90
7894;DHT22;51343;51.396;6.656;2022-08-01T10:02:54;23.30;99.90
7894;DHT22;51343;51.396;6.656;2022-08-01T10:05:30;23.60;99.90
7894;DHT22;51343;51.396;6.656;2022-08-01T10:07:57;24.00;99.90
7894;DHT22;51343;51.396;6.656;2022-08-01T10:10:24;24.10;99.90
7894;DHT22;51343;51.396;6.656;2022-08-01T10:12:51;24.00;99.90
7894;DHT22;51343;51.396;6.656;2022-08-01T10:15:18;23.90;99.90
7894;DHT22;51343;51.396;6.656;2022-08-01T10:17:46;24.20;99.90
7894;DHT22;51343;51.396;6.656;2022-08-01T10:20:18;24.50;99.90
7894;DHT22;51343;51.396;6.656;2022-08-01T10:22:46;24.90;99.90
7894;DHT22;51343;51.396;6.656;2022-08-01T10:25:13;24.90;99.90
7894;DHT22;51343;51.396;6.656;2022-08-01T10:27:42;25.00;99.90
7894;DHT22;51343;51.396;6.656;2022-08-01T10:30:11;24.80;99.90
7894;DHT22;51343;51.396;6.656;2022-08-01T10:32:38;25.00;99.90
7894;DHT22;51343;51.396;6.656;2022-08-01T10:35:08;25.40;99.90
7894;DHT22;51343;51.396;6.656;2022-08-01T10:37:41;25.60;99.90
7894;DHT22;51343;51.396;6.656;2022-08-01T10:40:08;25.50;99.90
7894;DHT22;51343;51.396;6.656;2022-08-01T10:42:38;25.00;99.90
7894;DHT22;51343;51.396;6.656;2022-08-01T10:45:06;25.00;99.90
7894;DHT22;51343;51.396;6.656;2022-08-01T10:47:33;24.80;99.90
7894;DHT22;51343;51.396;6.656;2022-08-01T10:50:07;24.70;99.90
7894;DHT22;51343;51.396;6.656;2022-08-01T10:52:37;25.10;99.90
7894;DHT22;51343;51.396;6.656;2022-08-01T10:55:06;25.90;99.90
7894;DHT22;51343;51.396;6.656;2022-08-01T10:57:41;25.90;99.90
7894;DHT22;51343;51.396;6.656;2022-08-01T11:00:08;25.50;99.90
7894;DHT22;51343;51.396;6.656;2022-08-01T11:02:35;25.00;99.90
7894;DHT22;51343;51.396;6.656;2022-08-01T11:05:07;25.10;99.90
7894;DHT22;51343;51.396;6.656;2022-08-01T11:07:39;25.00;99.90
7894;DHT22;51343;51.396;6.656;2022-08-01T11:10:14;24.90;99.90
7894;DHT22;51343;51.396;6.656;2022-08-01T11:12:43;24.50;99.90
7894;DHT22;51343;51.396;6.656;2022-08-01T11:15:20;24.20;99.90
7894;DHT22;51343;51.396;6.656;2022-08-01T11:17:54;24.20;99.90
7894;DHT22;51343;51.396;6.656;2022-08-01T11:20:21;24.80;99.90
7894;DHT22;51343;51.396;6.656;2022-08-01T11:28:27;25.80;99.90
7894;DHT22;51343;51.396;6.656;2022-08-01T11:33:47;25.20;99.90
7894;DHT22;51343;51.396;6.656;2022-08-01T11:36:18;25.10;99.90
7894;DHT22;51343;51.396;6.656;2022-08-01T11:38:46;24.80;99.90
7894;DHT22;51343;51.396;6.656;2022-08-01T11:41:13;24.60;99.90
7894;DHT22;51343;51.396;6.656;2022-08-01T11:51:59;24.50;99.90
7894;DHT22;51343;51.396;6.656;2022-08-01T11:54:27;25.00;99.90
7894;DHT22;51343;51.396;6.656;2022-08-01T11:56:54;25.50;99.90
7894;DHT22;51343;51.396;6.656;2022-08-01T11:59:21;25.90;99.90
7894;DHT22;51343;51.396;6.656;2022-08-01T12:01:48;26.10;99.90
7894;DHT22;51343;51.396;6.656;2022-08-01T12:04:15;26.10;99.90
7894;DHT22;51343;51.396;6.656;2022-08-01T12:06:42;26.10;99.90
7894;DHT22;51343;51.396;6.656;2022-08-01T12:09:23;25.90;99.90
7894;DHT22;51343;51.396;6.656;2022-08-01T12:11:50;25.80;99.90
7894;DHT22;51343;51.396;6.656;2022-08-01T12:14:20;25.90;99.90
7894;DHT22;51343;51.396;6.656;2022-08-01T12:16:51;26.60;99.90
7894;DHT22;51343;51.396;6.656;2022-08-01T12:19:21;26.70;99.90
7894;DHT22;51343;51.396;6.656;2022-08-01T12:22:07;27.00;99.90
7894;DHT22;51343;51.396;6.656;2022-08-01T12:24:36;27.70;99.90
7894;DHT22;51343;51.396;6.656;2022-08-01T12:27:03;28.00;99.90
7894;DHT22;51343;51.396;6.656;2022-08-01T12:29:30;28.10;99.90
7894;DHT22;51343;51.396;6.656;2022-08-01T12:31:57;28.40;99.90
7894;DHT22;51343;51.396;6.656;2022-08-01T12:34:25;28.30;99.90
7894;DHT22;51343;51.396;6.656;2022-08-01T12:36:53;27.50;99.90
7894;DHT22;51343;51.396;6.656;2022-08-01T12:39:20;26.80;99.90
7894;DHT22;51343;51.396;6.656;2022-08-01T12:41:48;26.10;99.90
7894;DHT22;51343;51.396;6.656;2022-08-01T12:44:15;25.60;99.90
7894;DHT22;51343;51.396;6.656;2022-08-01T12:46:44;26.00;99.90
7894;DHT22;51343;51.396;6.656;2022-08-01T12:49:12;26.40;99.90
7894;DHT22;51343;51.396;6.656;2022-08-01T12:51:41;26.60;99.90
7894;DHT22;51343;51.396;6.656;2022-08-01T12:54:11;27.00;99.90
7894;DHT22;51343;51.396;6.656;2022-08-01T12:56:37;27.30;99.90
7894;DHT22;51343;51.396;6.656;2022-08-01T13:01:49;27.60;99.90
7894;DHT22;51343;51.396;6.656;2022-08-01T13:04:16;27.50;99.90
7894;DHT22;51343;51.396;6.656;2022-08-01T13:06:43;27.00;99.90
7894;DHT22;51343;51.396;6.656;2022-08-01T13:09:10;26.40;99.90
7894;DHT22;51343;51.396;6.656;2022-08-01T13:11:39;26.30;99.90
7894;DHT22;51343;51.396;6.656;2022-08-01T13:14:06;26.90;99.90
7894;DHT22;51343;51.396;6.656;2022-08-01T13:16:33;27.40;99.90
7894;DHT22;51343;51.396;6.656;2022-08-01T13:19:13;27.70;99.90
7894;DHT22;51343;51.396;6.656;2022-08-01T13:21:54;27.50;99.90
7894;DHT22;51343;51.396;6.656;2022-08-01T13:24:23;27.00;99.90
7894;DHT22;51343;51.396;6.656;2022-08-01T13:26:50;26.20;99.90
7894;DHT22;51343;51.396;6.656;2022-08-01T13:29:18;25.80;99.90
7894;DHT22;51343;51.396;6.656;2022-08-01T13:31:46;25.70;99.90
7894;DHT22;51343;51.396;6.656;2022-08-01T13:34:14;25.70;99.90
7894;DHT22;51343;51.396;6.656;2022-08-01T13:36:41;25.70;99.90
7894;DHT22;51343;51.396;6.656;2022-08-01T13:39:08;25.60;99.90
7894;DHT22;51343;51.396;6.656;2022-08-01T13:41:52;25.60;99.90
7894;DHT22;51343;51.396;6.656;2022-08-01T13:44:19;25.60;99.90
7894;DHT22;51343;51.396;6.656;2022-08-01T13:46:47;25.30;99.90
7894;DHT22;51343;51.396;6.656;2022-08-01T13:49:15;25.10;99.90
7894;DHT22;51343;51.396;6.656;2022-08-01T13:51:42;25.10;99.90
7894;DHT22;51343;51.396;6.656;2022-08-01T13:54:12;25.00;99.90
7894;DHT22;51343;51.396;6.656;2022-08-01T13:56:41;25.00;99.90
7894;DHT22;51343;51.396;6.656;2022-08-01T13:59:07;25.00;99.90
7894;DHT22;51343;51.396;6.656;2022-08-01T14:01:34;25.20;99.90
7894;DHT22;51343;51.396;6.656;2022-08-01T14:04:02;25.10;99.90
7894;DHT22;51343;51.396;6.656;2022-08-01T14:06:32;25.00;99.90
7894;DHT22;51343;51.396;6.656;2022-08-01T14:08:58;24.90;99.90
7894;DHT22;51343;51.396;6.656;2022-08-01T14:11:25;24.90;99.90
7894;DHT22;51343;51.396;6.656;2022-08-01T14:13:52;24.70;99.90
7894;DHT22;51343;51.396;6.656;2022-08-01T14:16:19;24.70;99.90
7894;DHT22;51343;51.396;6.656;2022-08-01T14:18:45;24.80;99.90
7894;DHT22;51343;51.396;6.656;2022-08-01T14:21:12;24.80;99.90
7894;DHT22;51343;51.396;6.656;2022-08-01T14:23:41;24.90;99.90
7894;DHT22;51343;51.396;6.656;2022-08-01T14:26:08;24.90;99.90
7894;DHT22;51343;51.396;6.656;2022-08-01T14:28:35;25.10;99.90
7894;DHT22;51343;51.396;6.656;2022-08-01T14:31:02;25.40;99.90
7894;DHT22;51343;51.396;6.656;2022-08-01T14:33:31;25.50;99.90
7894;DHT22;51343;51.396;6.656;2022-08-01T14:35:58;25.50;99.90
7894;DHT22;51343;51.396;6.656;2022-08-01T14:38:25;25.50;99.90
7894;DHT22;51343;51.396;6.656;2022-08-01T14:40:56;25.60;99.90
7894;DHT22;51343;51.396;6.656;2022-08-01T14:43:23;25.80;99.90
7894;DHT22;51343;51.396;6.656;2022-08-01T14:45:50;25.80;99.90
7894;DHT22;51343;51.396;6.656;2022-08-01T14:48:19;26.00;99.90
7894;DHT22;51343;51.396;6.656;2022-08-01T14:50:46;26.10;99.90
7894;DHT22;51343;51.396;6.656;2022-08-01T14:53:14;26.20;99.90
7894;DHT22;51343;51.396;6.656;2022-08-01T14:55:41;26.40;99.90
7894;DHT22;51343;51.396;6.656;2022-08-01T14:58:09;26.30;99.90
7894;DHT22;51343;51.396;6.656;2022-08-01T15:00:36;26.40;99.90
7894;DHT22;51343;51.396;6.656;2022-08-01T15:03:02;26.30;99.90
7894;DHT22;51343;51.396;6.656;2022-08-01T15:05:32;26.40;99.90
7894;DHT22;51343;51.396;6.656;2022-08-01T15:08:02;26.40;99.90
7894;DHT22;51343;51.396;6.656;2022-08-01T15:10:30;26.10;99.90
7894;DHT22;51343;51.396;6.656;2022-08-01T15:12:57;25.90;99.90
7894;DHT22;51343;51.396;6.656;2022-08-01T15:15:26;25.80;99.90
7894;DHT22;51343;51.396;6.656;2022-08-01T15:17:53;25.80;99.90
7894;DHT22;51343;51.396;6.656;2022-08-01T15:20:20;25.80;99.90
7894;DHT22;51343;51.396;6.656;2022-08-01T15:22:46;25.60;99.90
7894;DHT22;51343;51.396;6.656;2022-08-01T15:25:14;25.60;99.90
7894;DHT22;51343;51.396;6.656;2022-08-01T15:27:41;25.70;99.90
7894;DHT22;51343;51.396;6.656;2022-08-01T15:30:07;25.80;99.90
7894;DHT22;51343;51.396;6.656;2022-08-01T15:32:37;25.60;99.90
7894;DHT22;51343;51.396;6.656;2022-08-01T15:35:04;25.40;99.90
7894;DHT22;51343;51.396;6.656;2022-08-01T15:37:31;25.30;99.90
7894;DHT22;51343;51.396;6.656;2022-08-01T15:39:58;25.20;99.90
7894;DHT22;51343;51.396;6.656;2022-08-01T15:42:25;25.10;99.90
7894;DHT22;51343;51.396;6.656;2022-08-01T15:44:51;25.30;99.90
7894;DHT22;51343;51.396;6.656;2022-08-01T15:47:18;25.20;99.90
7894;DHT22;51343;51.396;6.656;2022-08-01T15:49:46;25.10;99.90
7894;DHT22;51343;51.396;6.656;2022-08-01T15:52:13;24.90;99.90
7894;DHT22;51343;51.396;6.656;2022-08-01T15:54:40;24.60;99.90
7894;DHT22;51343;51.396;6.656;2022-08-01T15:57:06;24.40;99.90
7894;DHT22;51343;51.396;6.656;2022-08-01T15:59:34;24.30;99.90
7894;DHT22;51343;51.396;6.656;2022-08-01T16:02:02;24.30;99.90
7894;DHT22;51343;51.396;6.656;2022-08-01T16:04:29;24.40;99.90
7894;DHT22;51343;51.396;6.656;2022-08-01T16:06:59;24.40;99.90
7894;DHT22;51343;51.396;6.656;2022-08-01T16:09:26;24.50;99.90
7894;DHT22;51343;51.396;6.656;2022-08-01T16:11:53;24.50;99.90
7894;DHT22;51343;51.396;6.656;2022-08-01T16:14:20;24.50;99.90